Time;durP1;ratioP1;P1;durP2;ratioP2;P2;SDS_P1;SDS_P2;PMS_P1;PMS_P2;Temp;Humidity;BMP_temperature;BMP_pressure;BME280_temperature;BME280_humidity;BME280_pressure;Samples;Min_cycle;Max_cycle;Signal;HPM_P1;HPM_P2
2021/09/29 00:01:57;;;;;;;8.77;6.50;;;19.30;63.60;;;;;;5068085;28;20490;-65
2021/09/29 00:04:23;;;;;;;10.05;7.68;;;19.20;63.70;;;;;;5066285;28;20473;-66
2021/09/29 00:06:48;;;;;;;9.15;7.18;;;19.20;64.00;;;;;;5053609;28;20039;-65
2021/09/29 00:09:14;;;;;;;8.65;6.80;;;19.20;64.00;;;;;;5069394;28;20033;-66
2021/09/29 00:11:40;;;;;;;7.40;6.53;;;19.10;64.00;;;;;;5073450;28;20486;-66
2021/09/29 00:14:06;;;;;;;10.15;7.25;;;19.10;64.00;;;;;;5059710;28;20114;-66
2021/09/29 00:16:32;;;;;;;12.48;8.55;;;19.10;63.90;;;;;;5053426;28;20024;-66
2021/09/29 00:18:57;;;;;;;8.93;6.88;;;19.10;64.20;;;;;;5052337;28;20021;-66
2021/09/29 00:21:23;;;;;;;10.73;8.35;;;19.10;64.30;;;;;;5053289;28;20029;-66
2021/09/29 00:23:49;;;;;;;10.95;7.80;;;19.10;64.40;;;;;;5053337;28;20027;-67
2021/09/29 00:26:15;;;;;;;10.13;7.13;;;19.10;64.30;;;;;;5053252;28;20033;-65
2021/09/29 00:28:41;;;;;;;10.32;6.93;;;19.00;64.20;;;;;;5053377;28;20036;-66
2021/09/29 00:31:16;;;;;;;9.88;7.03;;;19.00;64.30;;;;;;5053159;28;20108;-65
2021/09/29 00:33:46;;;;;;;13.48;8.00;;;19.00;64.30;;;;;;5053050;28;20033;-65
2021/09/29 00:36:12;;;;;;;10.48;7.95;;;19.00;64.50;;;;;;5053054;28;20029;-65
2021/09/29 00:38:38;;;;;;;10.13;7.75;;;18.90;64.50;;;;;;5066107;28;20029;-66
2021/09/29 00:41:04;;;;;;;9.45;6.78;;;18.90;64.50;;;;;;5072029;28;20042;-66
2021/09/29 00:43:29;;;;;;;11.10;7.68;;;18.80;64.50;;;;;;5053372;28;20021;-66
2021/09/29 00:45:56;;;;;;;21.50;11.93;;;18.80;64.50;;;;;;5053009;28;20025;-65
2021/09/29 00:48:22;;;;;;;16.00;10.15;;;18.80;65.00;;;;;;5052850;28;20041;-65
2021/09/29 00:50:49;;;;;;;13.93;9.68;;;18.80;65.00;;;;;;5051360;28;20478;-66
2021/09/29 00:53:17;;;;;;;16.67;11.27;;;18.70;65.00;;;;;;5052776;28;20029;-65
2021/09/29 00:55:43;;;;;;;13.82;10.23;;;18.70;66.00;;;;;;5052569;28;20021;-65
2021/09/29 00:58:08;;;;;;;18.48;9.88;;;18.70;65.20;;;;;;5052724;28;20327;-65
2021/09/29 01:00:34;;;;;;;19.40;11.48;;;18.70;65.20;;;;;;5052619;28;20021;-66
2021/09/29 01:03:01;;;;;;;13.75;10.30;;;18.70;65.30;;;;;;5065133;28;20379;-65
2021/09/29 01:05:27;;;;;;;13.90;9.45;;;18.70;65.40;;;;;;5072385;28;20021;-66
2021/09/29 01:08:15;;;;;;;14.93;10.23;;;18.70;65.50;;;;;;5072317;28;20025;-64
2021/09/29 01:10:44;;;;;;;13.55;9.85;;;18.60;65.70;;;;;;5057454;28;20024;-66
2021/09/29 01:13:19;;;;;;;18.55;11.55;;;18.60;65.50;;;;;;5051675;28;20052;-65
2021/09/29 01:15:50;;;;;;;15.63;10.20;;;18.60;65.70;;;;;;5052130;28;20032;-65
2021/09/29 01:18:21;;;;;;;14.43;10.18;;;18.60;65.60;;;;;;5052001;28;20036;-66
2021/09/29 01:21:04;;;;;;;16.65;10.98;;;18.60;65.70;;;;;;5051975;28;20025;-66
2021/09/29 01:23:57;;;;;;;16.77;11.43;;;18.60;65.80;;;;;;5050757;28;20049;-66
2021/09/29 01:26:35;;;;;;;18.85;13.77;;;18.60;66.00;;;;;;5051641;28;20482;-66
2021/09/29 01:29:05;;;;;;;24.52;14.88;;;18.60;66.20;;;;;;5051456;28;20028;-66
2021/09/29 01:31:32;;;;;;;24.90;16.10;;;18.60;66.30;;;;;;5051666;28;20025;-66
2021/09/29 01:33:59;;;;;;;30.83;19.98;;;18.60;66.60;;;;;;5062411;28;20029;-65
2021/09/29 01:36:25;;;;;;;26.17;17.73;;;18.50;68.40;;;;;;5070641;28;20488;-65
2021/09/29 01:38:55;;;;;;;28.98;19.27;;;18.60;67.60;;;;;;5071411;28;20091;-65
2021/09/29 01:41:23;;;;;;;30.50;19.65;;;18.60;67.90;;;;;;5058494;28;20028;-66
2021/09/29 01:43:49;;;;;;;32.28;19.52;;;18.60;67.90;;;;;;5052783;28;20021;-66
2021/09/29 01:46:15;;;;;;;24.30;17.33;;;18.60;67.90;;;;;;5069905;28;20024;-66
2021/09/29 01:49:13;;;;;;;28.85;17.73;;;18.60;68.00;;;;;;5069823;28;20027;-66
2021/09/29 01:51:42;;;;;;;28.58;18.52;;;18.60;68.00;;;;;;5071498;28;20039;-66
2021/09/29 01:54:12;;;;;;;28.38;19.02;;;18.60;68.00;;;;;;5069065;28;20489;-66
2021/09/29 01:56:38;;;;;;;32.05;18.30;;;18.60;68.20;;;;;;5051546;28;20024;-65
2021/09/29 01:59:05;;;;;;;23.88;15.80;;;18.60;68.20;;;;;;5051709;28;20021;-66
2021/09/29 02:01:38;;;;;;;24.80;15.35;;;18.50;68.00;;;;;;5050936;28;20020;-65
2021/09/29 02:04:05;;;;;;;16.60;12.80;;;18.50;67.80;;;;;;5051207;28;20044;-65
2021/09/29 02:06:42;;;;;;;16.63;12.25;;;18.50;67.50;;;;;;5051495;28;20040;-66
2021/09/29 02:09:07;;;;;;;15.02;11.70;;;18.50;67.30;;;;;;5051930;28;20076;-65
2021/09/29 02:11:33;;;;;;;14.73;10.50;;;18.40;67.00;;;;;;5052006;28;20029;-65
2021/09/29 02:13:59;;;;;;;13.13;10.20;;;18.40;66.90;;;;;;5051749;28;20033;-66
2021/09/29 02:16:24;;;;;;;13.73;10.60;;;18.40;66.90;;;;;;5060983;28;20145;-65
2021/09/29 02:18:50;;;;;;;15.45;10.95;;;18.40;66.90;;;;;;5071805;28;20063;-66
2021/09/29 02:21:16;;;;;;;13.38;10.52;;;18.30;67.10;;;;;;5071853;28;20079;-66
2021/09/29 02:23:41;;;;;;;15.02;9.57;;;18.30;67.10;;;;;;5071913;28;20123;-66
2021/09/29 02:26:07;;;;;;;14.27;9.68;;;18.20;67.00;;;;;;5052941;28;20033;-65
2021/09/29 02:28:33;;;;;;;13.70;9.15;;;18.20;67.10;;;;;;5052031;28;20021;-65
2021/09/29 02:30:59;;;;;;;13.07;10.23;;;18.20;67.20;;;;;;5051821;28;20056;-66
2021/09/29 02:33:24;;;;;;;12.05;9.32;;;18.20;67.30;;;;;;5052665;28;20536;-66
2021/09/29 02:35:50;;;;;;;13.88;10.20;;;18.20;67.20;;;;;;5052875;28;20033;-66
2021/09/29 02:38:16;;;;;;;13.82;10.35;;;18.20;67.30;;;;;;5051703;28;20033;-66
2021/09/29 02:40:42;;;;;;;12.70;9.43;;;18.20;67.40;;;;;;5051414;28;20021;-66
2021/09/29 02:43:08;;;;;;;12.02;9.05;;;18.10;67.30;;;;;;5051477;28;20021;-66
2021/09/29 02:45:34;;;;;;;15.27;10.52;;;18.10;67.20;;;;;;5051734;28;20035;-66
2021/09/29 02:47:59;;;;;;;13.10;9.38;;;18.10;67.20;;;;;;5051620;28;20440;-65
2021/09/29 02:50:25;;;;;;;10.38;8.55;;;18.10;67.20;;;;;;5051534;28;20036;-66
2021/09/29 02:52:51;;;;;;;12.85;10.57;;;18.10;67.20;;;;;;5063384;28;20028;-66
2021/09/29 02:55:17;;;;;;;12.38;9.90;;;18.10;67.20;;;;;;5071465;28;20116;-66
2021/09/29 02:57:42;;;;;;;13.70;9.20;;;18.10;67.30;;;;;;5070752;28;20040;-66
2021/09/29 03:00:09;;;;;;;11.10;8.98;;;18.00;67.20;;;;;;5071693;28;20028;-66
2021/09/29 03:02:35;;;;;;;19.05;11.40;;;18.00;67.20;;;;;;5065540;28;20041;-65
2021/09/29 03:05:01;;;;;;;14.05;10.15;;;18.00;67.50;;;;;;5060044;28;20027;-65
2021/09/29 03:07:26;;;;;;;18.73;11.15;;;18.00;67.70;;;;;;5051399;28;20076;-66
2021/09/29 03:09:52;;;;;;;19.30;13.48;;;18.00;67.70;;;;;;5069231;28;20021;-64
2021/09/29 03:12:18;;;;;;;18.92;11.60;;;18.00;68.00;;;;;;5070583;28;20033;-65
2021/09/29 03:14:44;;;;;;;21.15;15.63;;;18.00;68.10;;;;;;5061044;28;20425;-65
2021/09/29 03:17:09;;;;;;;23.58;13.77;;;18.00;68.30;;;;;;5065642;28;20043;-67
2021/09/29 03:19:35;;;;;;;29.77;20.45;;;18.00;68.40;;;;;;5061764;28;20092;-65
2021/09/29 03:22:02;;;;;;;32.10;20.70;;;18.00;69.20;;;;;;5071431;28;20062;-66
2021/09/29 03:24:28;;;;;;;30.58;19.90;;;18.10;69.60;;;;;;5071252;28;20550;-66
2021/09/29 03:26:54;;;;;;;31.63;20.27;;;18.10;69.60;;;;;;5058087;28;20033;-65
2021/09/29 03:29:20;;;;;;;28.83;16.73;;;18.10;69.70;;;;;;5050994;28;20082;-66
2021/09/29 03:31:45;;;;;;;21.92;14.98;;;18.20;69.40;;;;;;5050779;28;20116;-66
2021/09/29 03:34:11;;;;;;;20.90;14.68;;;18.20;69.10;;;;;;5053991;28;20044;-66
2021/09/29 03:36:37;;;;;;;22.38;14.15;;;18.30;68.90;;;;;;5068577;28;20031;-65
2021/09/29 03:39:03;;;;;;;24.80;15.13;;;18.30;68.50;;;;;;5057199;28;20018;-66
2021/09/29 03:41:29;;;;;;;25.30;16.45;;;18.30;68.60;;;;;;5054737;28;20048;-66
2021/09/29 03:43:55;;;;;;;24.08;15.98;;;18.30;68.50;;;;;;5054524;28;20037;-66
2021/09/29 03:46:21;;;;;;;28.38;16.13;;;18.30;68.50;;;;;;5057183;28;20031;-66
2021/09/29 03:48:47;;;;;;;18.63;13.18;;;18.30;68.40;;;;;;5056349;28;20090;-66
2021/09/29 03:51:13;;;;;;;21.90;13.98;;;18.30;68.10;;;;;;5073628;28;20037;-65
2021/09/29 03:53:38;;;;;;;19.60;14.32;;;18.30;68.10;;;;;;5064024;28;20417;-66
2021/09/29 03:56:05;;;;;;;20.10;14.70;;;18.30;68.10;;;;;;5053719;28;20021;-65
2021/09/29 03:58:31;;;;;;;32.33;17.95;;;18.30;68.10;;;;;;5053514;28;20029;-67
2021/09/29 04:00:57;;;;;;;23.63;16.83;;;18.30;68.40;;;;;;5053368;28;20139;-65
2021/09/29 04:03:22;;;;;;;24.75;16.75;;;18.30;68.60;;;;;;5053145;28;20055;-66
2021/09/29 04:05:48;;;;;;;33.50;17.92;;;18.30;68.70;;;;;;5053636;28;20453;-65
2021/09/29 04:08:15;;;;;;;26.27;18.92;;;18.20;68.70;;;;;;5053322;28;20104;-66
2021/09/29 04:10:41;;;;;;;24.08;17.42;;;18.20;68.90;;;;;;5063421;28;20036;-65
2021/09/29 04:13:08;;;;;;;24.17;17.02;;;18.20;68.90;;;;;;5068864;28;20031;-66
2021/09/29 04:15:34;;;;;;;23.73;16.73;;;18.20;69.00;;;;;;5052972;28;20476;-65
2021/09/29 04:18:01;;;;;;;32.13;17.40;;;18.20;69.00;;;;;;5056164;28;20107;-65
2021/09/29 04:20:27;;;;;;;28.05;18.70;;;18.20;69.00;;;;;;5071125;28;20501;-65
2021/09/29 04:22:53;;;;;;;28.13;17.30;;;18.20;69.00;;;;;;5052729;28;20017;-65
2021/09/29 04:25:20;;;;;;;23.60;16.95;;;18.20;69.00;;;;;;5072696;28;20087;-64
2021/09/29 04:27:46;;;;;;;22.50;15.77;;;18.20;69.10;;;;;;5060284;28;20436;-65
2021/09/29 04:30:15;;;;;;;20.98;14.80;;;18.20;69.10;;;;;;5052563;28;20032;-65
2021/09/29 04:32:42;;;;;;;23.92;17.38;;;18.20;69.00;;;;;;5052784;28;20032;-65
2021/09/29 04:35:09;;;;;;;32.15;18.73;;;18.20;68.90;;;;;;5051222;28;20505;-65
2021/09/29 04:37:35;;;;;;;32.88;20.40;;;18.20;68.90;;;;;;5052707;28;20032;-65
2021/09/29 04:40:01;;;;;;;24.50;16.85;;;18.20;68.90;;;;;;5069167;28;20043;-65
2021/09/29 04:42:26;;;;;;;29.40;18.77;;;18.20;68.90;;;;;;5070748;28;20043;-65
2021/09/29 04:44:52;;;;;;;27.70;17.17;;;18.20;69.00;;;;;;5053913;28;20040;-65
2021/09/29 04:47:18;;;;;;;25.20;16.75;;;18.20;69.00;;;;;;5079203;28;20449;-65
2021/09/29 04:49:44;;;;;;;25.15;16.23;;;18.10;69.10;;;;;;5051906;28;20429;-65
2021/09/29 04:52:09;;;;;;;25.52;16.38;;;18.10;69.10;;;;;;5054844;28;20036;-65
2021/09/29 04:54:35;;;;;;;24.48;16.52;;;18.10;69.20;;;;;;5051953;28;20427;-65
2021/09/29 04:57:01;;;;;;;27.80;16.60;;;18.10;69.30;;;;;;5065507;28;20032;-65
2021/09/29 04:59:27;;;;;;;28.63;17.90;;;18.10;69.30;;;;;;5071984;28;20023;-65
2021/09/29 05:01:53;;;;;;;30.75;17.67;;;18.10;69.10;;;;;;5071331;28;20044;-65
2021/09/29 05:04:23;;;;;;;24.67;16.08;;;18.10;69.00;;;;;;5060053;28;20455;-65
2021/09/29 05:06:51;;;;;;;22.63;16.35;;;18.10;69.00;;;;;;5051916;28;20055;-65
2021/09/29 05:09:16;;;;;;;23.33;15.40;;;18.20;68.90;;;;;;5051908;28;20029;-64
2021/09/29 05:11:58;;;;;;;27.90;16.90;;;18.10;68.80;;;;;;5052151;28;20039;-65
2021/09/29 05:14:23;;;;;;;28.23;16.23;;;18.20;68.80;;;;;;5051780;28;20029;-65
2021/09/29 05:16:49;;;;;;;25.35;16.70;;;18.20;68.90;;;;;;5051856;28;20056;-65
2021/09/29 05:19:15;;;;;;;22.77;15.45;;;18.20;69.00;;;;;;5051719;28;20025;-65
2021/09/29 05:21:41;;;;;;;25.83;17.52;;;18.20;69.10;;;;;;5068590;28;20029;-65
2021/09/29 05:24:07;;;;;;;33.15;17.50;;;18.20;69.10;;;;;;5063108;28;20040;-65
2021/09/29 05:26:33;;;;;;;29.38;17.20;;;18.20;69.10;;;;;;5051858;28;20024;-66
2021/09/29 05:29:01;;;;;;;25.83;16.35;;;18.20;69.10;;;;;;5051349;28;20371;-66
2021/09/29 05:31:27;;;;;;;24.08;17.50;;;18.30;69.00;;;;;;5051563;28;20130;-66
2021/09/29 05:33:53;;;;;;;23.52;17.13;;;18.30;68.90;;;;;;5051278;28;20064;-66
2021/09/29 05:36:20;;;;;;;27.40;18.75;;;18.30;68.90;;;;;;5064268;28;20082;-65
2021/09/29 05:38:45;;;;;;;30.35;19.05;;;18.40;68.90;;;;;;5069658;28;20035;-66
2021/09/29 05:41:12;;;;;;;27.67;18.40;;;18.40;68.80;;;;;;5051260;28;20020;-66
2021/09/29 05:43:38;;;;;;;27.58;20.33;;;18.40;68.80;;;;;;5054517;28;20013;-66
2021/09/29 05:46:04;;;;;;;24.67;18.38;;;18.40;68.60;;;;;;5078844;28;20027;-66
2021/09/29 05:48:29;;;;;;;23.40;16.40;;;18.50;68.60;;;;;;5091520;28;20440;-66
2021/09/29 05:50:55;;;;;;;25.13;16.23;;;18.50;68.60;;;;;;5065833;28;20048;-66
2021/09/29 05:53:21;;;;;;;19.58;15.00;;;18.60;68.60;;;;;;5051127;28;20237;-66
2021/09/29 05:55:47;;;;;;;23.17;16.02;;;18.60;68.60;;;;;;5051174;28;20025;-65
2021/09/29 05:58:13;;;;;;;22.75;15.55;;;18.70;68.50;;;;;;5051280;28;20104;-67
2021/09/29 06:00:39;;;;;;;31.67;16.45;;;18.80;68.50;;;;;;5050161;28;20025;-66
2021/09/29 06:03:05;;;;;;;23.92;16.13;;;18.80;68.30;;;;;;5051129;28;20048;-67
2021/09/29 06:05:31;;;;;;;23.13;16.33;;;18.90;68.10;;;;;;5052800;28;20638;-66
2021/09/29 06:07:56;;;;;;;23.70;15.85;;;19.00;67.90;;;;;;5064374;28;20032;-66
2021/09/29 06:10:23;;;;;;;27.58;17.45;;;19.10;67.70;;;;;;5067092;28;20523;-66
2021/09/29 06:12:49;;;;;;;35.80;18.95;;;19.10;67.30;;;;;;5067254;28;20488;-67
2021/09/29 06:15:27;;;;;;;25.95;18.35;;;19.10;66.90;;;;;;5061596;28;20100;-66
2021/09/29 06:18:02;;;;;;;27.55;17.98;;;19.20;66.50;;;;;;5051845;28;20082;-66
2021/09/29 06:20:32;;;;;;;23.15;16.52;;;19.20;66.10;;;;;;5059459;28;20067;-66
2021/09/29 06:23:00;;;;;;;30.40;17.75;;;19.20;65.90;;;;;;5069343;28;20052;-66
2021/09/29 06:25:26;;;;;;;27.20;19.15;;;19.20;65.60;;;;;;5070986;28;20025;-66
2021/09/29 06:27:52;;;;;;;29.00;19.55;;;19.30;65.30;;;;;;5063681;28;20044;-66
2021/09/29 06:30:18;;;;;;;25.27;17.30;;;19.30;65.10;;;;;;5052305;28;20029;-66
2021/09/29 06:32:45;;;;;;;26.17;16.40;;;19.30;64.70;;;;;;5065509;28;20032;-66
2021/09/29 06:35:11;;;;;;;25.52;17.45;;;19.30;64.60;;;;;;5052185;28;20067;-65
2021/09/29 06:37:42;;;;;;;22.42;15.85;;;19.30;64.60;;;;;;5057054;28;20074;-64
2021/09/29 06:40:14;;;;;;;29.20;17.25;;;19.40;64.90;;;;;;5070808;28;20422;-65
2021/09/29 06:42:40;;;;;;;22.38;17.20;;;19.30;65.10;;;;;;5071006;28;20443;-65
2021/09/29 06:45:07;;;;;;;27.23;17.65;;;19.40;64.80;;;;;;5065139;28;20040;-65
2021/09/29 06:47:34;;;;;;;22.48;15.02;;;19.40;64.50;;;;;;5061964;28;20036;-66
2021/09/29 06:50:00;;;;;;;22.02;15.48;;;19.40;64.70;;;;;;5051322;28;20025;-65
2021/09/29 06:52:26;;;;;;;27.00;15.75;;;19.40;64.80;;;;;;5049449;28;20029;-65
2021/09/29 06:54:52;;;;;;;24.90;16.65;;;19.40;64.70;;;;;;5059259;28;20028;-65
2021/09/29 06:57:17;;;;;;;23.45;16.20;;;19.40;64.70;;;;;;5061514;28;20025;-65
2021/09/29 06:59:43;;;;;;;28.20;18.80;;;19.40;64.70;;;;;;5049871;28;20120;-66
2021/09/29 07:02:09;;;;;;;25.50;18.20;;;19.40;64.50;;;;;;5065918;28;20048;-65
2021/09/29 07:04:35;;;;;;;29.17;19.30;;;19.40;64.70;;;;;;5057884;28;20085;-65
2021/09/29 07:07:01;;;;;;;29.58;19.02;;;19.30;64.60;;;;;;5050336;28;20025;-65
2021/09/29 07:09:26;;;;;;;25.23;16.90;;;19.30;64.70;;;;;;5049984;28;20025;-65
2021/09/29 07:11:52;;;;;;;28.15;16.92;;;19.30;64.90;;;;;;5051750;28;20036;-66
2021/09/29 07:14:20;;;;;;;21.83;17.02;;;19.30;65.00;;;;;;5056882;28;20048;-65
2021/09/29 07:16:46;;;;;;;23.90;16.80;;;19.20;65.20;;;;;;5062660;28;20021;-65
2021/09/29 07:19:13;;;;;;;24.38;16.10;;;19.30;66.10;;;;;;5054001;28;20469;-65
2021/09/29 07:21:38;;;;;;;21.23;15.38;;;19.30;65.30;;;;;;5063971;28;20051;-64
2021/09/29 07:24:05;;;;;;;22.52;16.00;;;19.30;65.60;;;;;;5060481;28;20576;-65
2021/09/29 07:26:31;;;;;;;22.92;17.00;;;19.30;65.70;;;;;;5069032;28;20078;-65
2021/09/29 07:28:56;;;;;;;30.65;17.65;;;19.30;65.70;;;;;;5067754;28;20474;-65
2021/09/29 07:31:22;;;;;;;26.25;17.25;;;19.30;65.70;;;;;;5059805;28;20033;-65
2021/09/29 07:33:48;;;;;;;24.67;17.67;;;19.40;65.50;;;;;;5056282;28;20037;-66
2021/09/29 07:36:14;;;;;;;24.75;15.63;;;19.40;65.30;;;;;;5062326;28;20025;-65
2021/09/29 07:38:40;;;;;;;23.65;17.17;;;19.40;65.20;;;;;;5056995;28;20021;-66
2021/09/29 07:41:07;;;;;;;25.05;16.02;;;19.40;65.20;;;;;;5076004;28;20021;-65
2021/09/29 07:43:32;;;;;;;26.23;17.33;;;19.30;65.10;;;;;;5073391;28;20472;-64
2021/09/29 07:45:58;;;;;;;24.48;17.10;;;19.40;65.00;;;;;;5073547;28;20115;-65
2021/09/29 07:48:24;;;;;;;22.17;14.43;;;19.30;64.90;;;;;;5064871;28;20029;-65
2021/09/29 07:50:50;;;;;;;24.80;15.20;;;19.30;65.00;;;;;;5060726;28;20029;-66
2021/09/29 07:53:19;;;;;;;22.25;15.20;;;19.40;65.10;;;;;;5059006;28;20381;-65
2021/09/29 07:55:45;;;;;;;26.42;14.80;;;19.30;65.10;;;;;;5058117;28;20484;-66
2021/09/29 07:58:11;;;;;;;27.20;16.45;;;19.40;65.20;;;;;;5061811;28;20024;-64
2021/09/29 08:00:37;;;;;;;23.85;16.90;;;19.40;65.00;;;;;;5055816;28;20362;-65
2021/09/29 08:03:03;;;;;;;23.10;15.23;;;19.40;65.00;;;;;;5056620;28;20053;-65
2021/09/29 08:05:30;;;;;;;23.70;14.80;;;19.40;65.10;;;;;;5057311;28;20028;-65
2021/09/29 08:07:56;;;;;;;22.58;15.05;;;19.40;65.10;;;;;;5057300;28;20090;-65
2021/09/29 08:10:22;;;;;;;24.50;16.02;;;19.40;65.30;;;;;;5074121;28;20470;-65
2021/09/29 08:12:48;;;;;;;22.63;14.30;;;19.50;65.50;;;;;;5066491;28;20040;-65
2021/09/29 08:15:15;;;;;;;22.50;15.43;;;19.40;65.40;;;;;;5057567;28;20029;-65
2021/09/29 08:17:43;;;;;;;22.05;14.73;;;19.50;65.50;;;;;;5072570;28;20024;-65
2021/09/29 08:20:10;;;;;;;29.13;16.25;;;19.50;65.50;;;;;;5057187;28;20031;-66
2021/09/29 08:22:38;;;;;;;21.48;15.27;;;19.50;65.60;;;;;;5056218;28;20033;-65
2021/09/29 08:35:30;;;;;;;25.48;15.73;;;19.70;66.50;;;;;;5050433;28;20040;-66
2021/09/29 08:38:07;;;;;;;25.33;15.20;;;19.70;65.80;;;;;;5050234;28;20168;-65
2021/09/29 08:44:19;;;;;;;22.80;15.35;;;19.80;65.90;;;;;;5008668;28;20540;-65
2021/09/29 08:46:29;;;;;;;21.40;14.95;;;19.90;66.00;;;;;;5042719;28;20048;-65
2021/09/29 09:16:45;;;;;;;22.50;12.70;;;20.50;65.70;;;;;;5067343;28;20047;-66
2021/09/29 09:19:13;;;;;;;17.77;12.00;;;20.60;66.00;;;;;;5061143;28;20055;-66
2021/09/29 09:21:52;;;;;;;18.65;12.18;;;20.70;66.30;;;;;;5064603;28;20025;-65
2021/09/29 09:24:27;;;;;;;16.83;11.57;;;20.70;66.30;;;;;;5073920;28;20059;-66
2021/09/29 09:27:03;;;;;;;15.90;11.48;;;20.80;66.10;;;;;;5086814;28;20028;-66
2021/09/29 09:29:30;;;;;;;16.95;11.40;;;20.90;65.90;;;;;;5075095;28;20097;-66
2021/09/29 09:32:07;;;;;;;18.42;12.50;;;21.00;65.50;;;;;;5065011;28;20316;-66
2021/09/29 09:34:33;;;;;;;17.85;12.55;;;21.00;64.80;;;;;;5057049;28;20029;-65
2021/09/29 09:36:59;;;;;;;20.92;11.80;;;21.00;64.30;;;;;;5085198;28;20043;-64
2021/09/29 09:39:25;;;;;;;18.60;12.93;;;21.00;64.20;;;;;;5074868;28;20055;-64
2021/09/29 09:41:51;;;;;;;20.75;13.90;;;20.90;64.90;;;;;;5061993;28;20119;-64
2021/09/29 09:44:37;;;;;;;15.60;11.70;;;20.90;64.50;;;;;;5082707;28;20145;-64
2021/09/29 09:47:10;;;;;;;14.68;11.38;;;20.90;64.40;;;;;;5073357;28;20063;-64
2021/09/29 09:49:54;;;;;;;14.10;10.90;;;20.90;64.70;;;;;;5081909;28;20119;-64
2021/09/29 09:52:34;;;;;;;14.30;10.40;;;21.00;64.70;;;;;;5060844;28;20141;-64
2021/09/29 09:55:09;;;;;;;15.35;11.55;;;21.10;64.20;;;;;;5085632;28;20097;-64
2021/09/29 09:57:36;;;;;;;12.30;9.90;;;21.20;63.90;;;;;;5079371;28;20020;-65
2021/09/29 10:00:06;;;;;;;11.95;9.32;;;21.30;64.10;;;;;;5081162;28;20045;-64
2021/09/29 10:02:46;;;;;;;13.02;10.20;;;21.40;63.50;;;;;;5086740;28;20119;-64
2021/09/29 10:05:14;;;;;;;10.85;7.63;;;21.50;63.60;;;;;;5059604;28;20461;-64
2021/09/29 10:07:40;;;;;;;11.57;9.07;;;21.60;63.50;;;;;;5084075;28;20077;-64
2021/09/29 10:10:15;;;;;;;9.95;8.30;;;21.70;62.80;;;;;;5083322;28;20529;-64
2021/09/29 10:22:48;;;;;;;12.13;9.15;;;22.00;62.50;;;;;;5059415;28;20495;-65
2021/09/29 10:26:25;;;;;;;11.48;7.63;;;22.20;61.10;;;;;;5083459;28;20024;-65
2021/09/29 10:29:03;;;;;;;10.95;7.35;;;22.20;61.00;;;;;;5059940;28;20029;-64
2021/09/29 10:31:37;;;;;;;10.00;8.27;;;22.20;60.60;;;;;;5075353;28;20024;-64
2021/09/29 10:34:09;;;;;;;9.93;7.20;;;22.20;60.10;;;;;;5073122;28;20032;-65
2021/09/29 11:03:05;;;;;;;10.10;6.47;;;22.10;59.90;;;;;;5064430;28;20108;-64
2021/09/29 11:12:22;;;;;;;4.53;3.85;;;22.30;59.50;;;;;;5080489;28;20039;-64
2021/09/29 11:31:54;;;;;;;;;;;23.20;57.30;;;;;;5102563;28;20388;-64
2021/09/29 11:34:27;;;;;;;5.75;3.08;;;23.30;58.70;;;;;;5076728;28;19916;-65
2021/09/29 11:37:14;;;;;;;5.55;3.33;;;23.50;57.40;;;;;;5074576;28;20016;-65
2021/09/29 12:10:11;;;;;;;9.50;1.60;;;22.80;55.40;;;;;;5060001;28;20148;-65
2021/09/29 12:12:42;;;;;;;3.03;2.05;;;22.80;55.10;;;;;;5065331;28;20060;-65
2021/09/29 12:15:10;;;;;;;3.15;1.77;;;22.80;54.70;;;;;;5070861;28;20033;-64
2021/09/29 12:17:39;;;;;;;6.85;1.75;;;22.80;55.20;;;;;;5080191;28;20017;-64
2021/09/29 12:20:20;;;;;;;4.45;1.98;;;22.80;55.70;;;;;;5061515;28;20393;-65
2021/09/29 12:22:51;;;;;;;3.38;1.90;;;22.90;55.10;;;;;;5090783;28;20373;-64
2021/09/29 12:25:43;;;;;;;3.67;2.10;;;22.80;54.50;;;;;;5075016;28;20028;-65
2021/09/29 12:28:24;;;;;;;2.70;2.03;;;22.80;55.10;;;;;;5072407;28;20399;-65
2021/09/29 12:36:31;;;;;;;7.18;2.97;;;22.70;54.10;;;;;;5082003;28;20105;-64
2021/09/29 12:38:59;;;;;;;6.10;2.37;;;22.60;54.40;;;;;;5077491;28;20016;-63
2021/09/29 12:41:28;;;;;;;3.25;2.05;;;22.60;54.80;;;;;;5086673;28;20024;-64
2021/09/29 12:44:05;;;;;;;5.78;1.77;;;22.50;54.20;;;;;;5072406;28;20031;-64
2021/09/29 12:46:32;;;;;;;7.13;1.90;;;22.40;54.30;;;;;;5062332;28;20103;-64
2021/09/29 12:49:02;;;;;;;3.30;1.70;;;22.40;54.30;;;;;;5088813;28;20020;-65
2021/09/29 12:51:28;;;;;;;3.00;1.83;;;22.40;54.90;;;;;;5062723;28;20491;-64
2021/09/29 12:53:58;;;;;;;4.50;1.65;;;22.30;54.70;;;;;;5072508;28;20052;-64
2021/09/29 12:56:23;;;;;;;4.45;1.70;;;22.40;55.20;;;;;;5072584;28;20029;-64
2021/09/29 12:58:49;;;;;;;7.40;1.67;;;22.40;55.40;;;;;;5055696;28;20550;-64
2021/09/29 13:01:16;;;;;;;3.17;1.83;;;22.50;55.10;;;;;;5077143;28;20027;-64
2021/09/29 13:03:42;;;;;;;2.50;1.67;;;22.40;54.50;;;;;;5086314;28;20040;-64
2021/09/29 13:06:10;;;;;;;4.50;2.00;;;22.50;54.40;;;;;;5079118;28;20035;-64
2021/09/29 13:08:36;;;;;;;3.45;2.00;;;22.50;54.70;;;;;;5079994;28;20028;-65
2021/09/29 13:11:02;;;;;;;3.78;2.33;;;22.50;54.90;;;;;;5067402;28;20041;-64
2021/09/29 13:13:30;;;;;;;3.55;1.88;;;22.40;54.90;;;;;;5074629;28;20028;-64
2021/09/29 13:15:59;;;;;;;3.70;1.50;;;22.40;54.40;;;;;;5064751;28;20021;-65
2021/09/29 13:18:44;;;;;;;4.22;2.22;;;22.30;54.50;;;;;;5055599;28;20040;-65
2021/09/29 13:21:36;;;;;;;4.88;1.67;;;22.20;54.20;;;;;;5059851;28;20012;-64
2021/09/29 13:27:08;;;;;;;3.00;1.95;;;22.00;54.00;;;;;;5076755;28;20017;-65
2021/09/29 13:37:34;;;;;;;3.03;1.60;;;21.80;55.40;;;;;;5069258;28;20369;-63
2021/09/29 13:40:00;;;;;;;3.30;1.88;;;21.80;55.40;;;;;;5060504;28;20025;-63
2021/09/29 13:42:26;;;;;;;2.25;1.33;;;21.80;55.50;;;;;;5080552;28;20389;-65
2021/09/29 13:44:53;;;;;;;6.78;1.77;;;21.90;55.80;;;;;;5089047;28;20028;-65
2021/09/29 13:47:18;;;;;;;4.43;2.10;;;21.90;55.30;;;;;;5069327;28;20036;-65
2021/09/29 13:49:44;;;;;;;2.10;1.30;;;21.90;55.70;;;;;;5072169;28;20032;-64
2021/09/29 13:52:16;;;;;;;4.38;1.50;;;21.90;55.60;;;;;;5082124;28;20059;-64
2021/09/29 13:54:43;;;;;;;6.38;2.33;;;22.00;55.40;;;;;;5088649;28;20024;-64
2021/09/29 13:57:21;;;;;;;2.75;1.60;;;22.00;55.40;;;;;;5058981;28;20012;-65
2021/09/29 14:00:03;;;;;;;6.38;2.25;;;22.00;55.70;;;;;;5087829;28;20028;-64
2021/09/29 14:29:54;;;;;;;4.78;2.00;;;22.10;56.20;;;;;;5084473;28;20077;-64
2021/09/29 14:32:22;;;;;;;2.28;1.42;;;22.10;55.70;;;;;;5080565;28;20021;-64
2021/09/29 14:34:48;;;;;;;3.95;1.90;;;22.10;55.80;;;;;;5060054;28;20043;-64
2021/09/29 14:37:15;;;;;;;4.55;1.75;;;22.10;55.50;;;;;;5067931;28;20016;-64
2021/09/29 14:39:41;;;;;;;2.38;1.63;;;22.10;55.50;;;;;;5057309;28;20146;-64
2021/09/29 14:42:07;;;;;;;2.80;1.52;;;22.10;55.10;;;;;;5058208;28;20025;-65
2021/09/29 14:44:34;;;;;;;2.67;1.60;;;22.10;55.30;;;;;;5050994;28;20552;-64
2021/09/29 14:47:00;;;;;;;5.72;1.70;;;22.10;55.10;;;;;;5069314;28;20170;-65
2021/09/29 14:49:28;;;;;;;2.25;1.35;;;22.10;55.00;;;;;;5054163;28;20025;-65
2021/09/29 14:51:58;;;;;;;5.07;1.48;;;22.10;55.40;;;;;;5059596;28;20112;-64
2021/09/29 14:54:24;;;;;;;2.10;1.52;;;22.10;54.80;;;;;;5056376;28;20450;-65
2021/09/29 14:56:50;;;;;;;2.47;1.35;;;22.10;55.20;;;;;;5059530;28;20017;-64
2021/09/29 14:59:15;;;;;;;2.50;1.52;;;22.10;55.20;;;;;;5056907;28;20096;-63
2021/09/29 15:01:41;;;;;;;2.50;1.48;;;22.10;54.80;;;;;;5067596;28;20071;-65
2021/09/29 15:04:07;;;;;;;3.72;1.67;;;22.10;54.60;;;;;;5052222;28;20029;-65
2021/09/29 15:06:33;;;;;;;5.90;1.92;;;22.10;54.60;;;;;;5053269;28;20031;-65
2021/09/29 15:08:58;;;;;;;1.75;1.25;;;22.00;54.40;;;;;;5086183;28;20052;-65
2021/09/29 15:11:24;;;;;;;6.70;1.75;;;22.00;54.50;;;;;;5075322;28;20111;-65
2021/09/29 15:16:42;;;;;;;6.30;1.67;;;21.90;54.50;;;;;;5059071;28;20083;-64
2021/09/29 15:29:42;;;;;;;2.05;1.13;;;21.80;55.50;;;;;;5062045;28;20044;-64
2021/09/29 15:48:50;;;;;;;7.18;3.47;;;21.80;55.80;;;;;;5054967;28;20281;-64
2021/09/29 15:56:35;;;;;;;;;;;21.70;55.30;;;;;;5055202;28;20032;-64
2021/09/29 16:01:50;;;;;;;3.38;1.45;;;21.70;55.20;;;;;;5054711;28;20509;-63
2021/09/29 16:04:29;;;;;;;6.45;2.15;;;21.60;55.40;;;;;;5054628;28;20029;-64
2021/09/29 16:12:31;;;;;;;;;;;21.50;55.90;;;;;;5054829;28;20083;-64
2021/09/29 16:15:16;;;;;;;2.38;1.50;;;21.50;55.90;;;;;;5054245;28;20353;-64
2021/09/29 16:31:57;;;;;;;5.22;2.00;;;21.00;56.70;;;;;;5054145;28;20559;-64
2021/09/29 16:34:24;;;;;;;2.35;1.45;;;20.90;57.00;;;;;;5053929;28;20025;-64